createdAt,value
2017-03-26T00:00:27.163Z,1017.61
2017-03-26T00:01:07.704Z,1017.65
2017-03-26T00:01:48.178Z,1017.61
2017-03-26T00:02:28.686Z,1017.66
2017-03-26T00:03:09.207Z,1017.63
2017-03-26T00:03:49.769Z,1017.62
2017-03-26T00:04:30.315Z,1017.58
2017-03-26T00:05:10.827Z,1017.61
2017-03-26T00:05:51.414Z,1017.6
2017-03-26T00:06:31.978Z,1017.58
2017-03-26T00:07:12.498Z,1017.56
2017-03-26T00:07:53.045Z,1017.55
2017-03-26T00:08:33.572Z,1017.53
2017-03-26T00:09:14.131Z,1017.5
2017-03-26T00:09:54.702Z,1017.51
2017-03-26T00:10:35.179Z,1017.49
2017-03-26T00:11:15.712Z,1017.53
2017-03-26T00:11:56.182Z,1017.54
2017-03-26T00:12:36.717Z,1017.54
2017-03-26T00:13:17.263Z,1017.52
2017-03-26T00:13:57.829Z,1017.5
2017-03-26T00:14:38.293Z,1017.52
2017-03-26T00:15:18.845Z,1017.48
2017-03-26T00:15:59.363Z,1017.45
2017-03-26T00:16:39.874Z,1017.47
2017-03-26T00:17:20.388Z,1017.48
2017-03-26T00:18:00.896Z,1017.45
2017-03-26T00:18:41.393Z,1017.45
2017-03-26T00:19:21.892Z,1017.46
2017-03-26T00:20:02.383Z,1017.47
2017-03-26T00:20:42.897Z,1017.46
2017-03-26T00:21:23.440Z,1017.49
2017-03-26T00:22:03.942Z,1017.46
2017-03-26T00:22:44.474Z,1017.47
2017-03-26T00:23:25.032Z,1017.43
2017-03-26T00:24:05.513Z,1017.44
2017-03-26T00:24:46.070Z,1017.42
2017-03-26T00:25:26.608Z,1017.41
2017-03-26T00:26:07.162Z,1017.4
2017-03-26T00:26:47.698Z,1017.37
2017-03-26T00:27:28.230Z,1017.41
2017-03-26T00:28:08.776Z,1017.42
2017-03-26T00:28:49.296Z,1017.39
2017-03-26T00:29:29.839Z,1017.37
2017-03-26T00:30:10.360Z,1017.38
2017-03-26T00:30:50.862Z,1017.31
2017-03-26T00:31:31.390Z,1017.38
2017-03-26T00:32:11.885Z,1017.35
2017-03-26T00:32:52.393Z,1017.4
2017-03-26T00:33:32.976Z,1017.41
2017-03-26T00:34:13.446Z,1017.41
2017-03-26T00:34:53.972Z,1017.41
2017-03-26T00:35:34.483Z,1017.42
2017-03-26T00:36:14.955Z,1017.5
2017-03-26T00:36:55.496Z,1017.5
2017-03-26T00:37:36.000Z,1017.52
2017-03-26T00:38:16.536Z,1017.53
2017-03-26T00:38:56.997Z,1017.47
2017-03-26T00:39:37.539Z,1017.51
2017-03-26T00:40:18.051Z,1017.5
2017-03-26T00:40:58.548Z,1017.49
2017-03-26T00:41:39.064Z,1017.46
2017-03-26T00:42:19.599Z,1017.48
2017-03-26T00:43:00.079Z,1017.43
2017-03-26T00:43:40.636Z,1017.44
2017-03-26T00:44:21.165Z,1017.46
2017-03-26T00:45:01.683Z,1017.46
2017-03-26T00:45:42.206Z,1017.46
2017-03-26T00:46:23.245Z,1017.48
2017-03-26T00:47:03.773Z,1017.51
2017-03-26T00:47:44.297Z,1017.52
2017-03-26T00:48:24.843Z,1017.47
2017-03-26T00:49:05.317Z,1017.43
2017-03-26T00:49:45.867Z,1017.42
2017-03-26T00:50:26.444Z,1017.43
2017-03-26T00:51:06.968Z,1017.42
2017-03-26T00:51:47.489Z,1017.46
2017-03-26T00:52:28.010Z,1017.42
2017-03-26T00:53:08.548Z,1017.44
2017-03-26T00:53:49.092Z,1017.46
2017-03-26T00:54:29.608Z,1017.47
2017-03-26T00:55:11.096Z,1017.43
2017-03-26T00:55:51.577Z,1017.41
2017-03-26T00:56:32.099Z,1017.4
2017-03-26T00:57:12.630Z,1017.4
2017-03-26T00:57:53.165Z,1017.37
2017-03-26T00:58:33.686Z,1017.35
2017-03-26T00:59:14.229Z,1017.32
2017-03-26T00:59:54.767Z,1017.29
2017-03-26T01:00:35.302Z,1017.29
2017-03-26T01:01:15.860Z,1017.29
2017-03-26T01:01:56.386Z,1017.26
2017-03-26T01:02:36.941Z,1017.22
2017-03-26T01:03:17.531Z,1017.23
2017-03-26T01:03:58.049Z,1017.21
2017-03-26T01:04:38.628Z,1017.24
2017-03-26T01:05:19.191Z,1017.26
2017-03-26T01:05:59.688Z,1017.27
2017-03-26T01:06:40.195Z,1017.29
2017-03-26T01:07:20.732Z,1017.24
2017-03-26T01:08:01.218Z,1017.28
2017-03-26T01:08:41.760Z,1017.24
2017-03-26T01:09:22.259Z,1017.23
2017-03-26T01:10:02.827Z,1017.23
2017-03-26T01:10:43.414Z,1017.21
2017-03-26T01:11:23.947Z,1017.18
2017-03-26T01:12:04.487Z,1017.22
2017-03-26T01:12:45.044Z,1017.28
2017-03-26T01:13:25.525Z,1017.28
2017-03-26T01:14:06.032Z,1017.29
2017-03-26T01:14:46.560Z,1017.29
2017-03-26T01:15:27.082Z,1017.3
2017-03-26T01:16:07.642Z,1017.31
2017-03-26T01:16:48.176Z,1017.29
2017-03-26T01:17:28.664Z,1017.3
2017-03-26T01:18:09.192Z,1017.29
2017-03-26T01:18:49.697Z,1017.31
2017-03-26T01:19:30.231Z,1017.24
2017-03-26T01:20:10.745Z,1017.25
2017-03-26T01:20:51.274Z,1017.2
2017-03-26T01:21:31.782Z,1017.2
2017-03-26T01:22:12.296Z,1017.17
2017-03-26T01:24:26.532Z,1017.15
2017-03-26T01:25:07.036Z,1017.14
2017-03-26T01:25:47.576Z,1017.1
2017-03-26T01:26:28.074Z,1017.11
2017-03-26T01:27:08.597Z,1017.12
2017-03-26T01:27:49.134Z,1017.13
2017-03-26T01:28:29.619Z,1017.16
2017-03-26T01:29:10.128Z,1017.17
2017-03-26T01:29:50.688Z,1017.18
2017-03-26T01:30:31.265Z,1017.19
2017-03-26T01:31:11.771Z,1017.18
2017-03-26T01:31:52.244Z,1017.21
2017-03-26T01:32:32.760Z,1017.23
2017-03-26T01:33:13.293Z,1017.24
2017-03-26T01:33:53.824Z,1017.22
2017-03-26T01:34:34.326Z,1017.22
2017-03-26T01:35:14.859Z,1017.22
2017-03-26T01:35:55.402Z,1017.19
2017-03-26T01:36:35.893Z,1017.16
2017-03-26T01:37:16.418Z,1017.11
2017-03-26T01:37:57.588Z,1017.1
2017-03-26T01:38:38.157Z,1017.04
2017-03-26T01:39:18.735Z,1017.05
2017-03-26T01:39:59.227Z,1017.07
2017-03-26T01:40:39.776Z,1017.07
2017-03-26T01:41:20.302Z,1017.04
2017-03-26T01:42:00.841Z,1017.06
2017-03-26T01:42:41.325Z,1017.04
2017-03-26T01:43:21.834Z,1017.03
2017-03-26T01:44:02.354Z,1017.03
2017-03-26T01:44:42.884Z,1017.01
2017-03-26T01:45:23.475Z,1017.05
2017-03-26T01:46:04.014Z,1017.06
2017-03-26T01:46:44.557Z,1017.09
2017-03-26T01:47:25.109Z,1017.05
2017-03-26T01:48:05.722Z,1017.08
2017-03-26T01:48:46.282Z,1017.07
2017-03-26T01:49:26.823Z,1017.07
2017-03-26T01:50:07.323Z,1017.08
2017-03-26T01:50:47.820Z,1017.09
2017-03-26T01:51:28.359Z,1017.09
2017-03-26T01:52:08.883Z,1017.09
2017-03-26T01:52:49.419Z,1017.02
2017-03-26T01:53:29.984Z,1017
2017-03-26T01:54:10.514Z,1017.01
2017-03-26T01:54:51.026Z,1017.03
2017-03-26T01:55:31.566Z,1017.02
2017-03-26T01:56:12.143Z,1017.03
2017-03-26T01:56:52.688Z,1016.98
2017-03-26T01:57:33.183Z,1016.96
2017-03-26T01:58:13.708Z,1016.97
2017-03-26T01:58:54.257Z,1016.94
2017-03-26T01:59:34.772Z,1016.97
2017-03-26T02:00:15.328Z,1017.03
2017-03-26T02:00:55.830Z,1017.02
2017-03-26T02:01:36.363Z,1017.08
2017-03-26T02:02:16.900Z,1017.12
2017-03-26T02:02:57.460Z,1017.12
2017-03-26T02:03:38.007Z,1017.11
2017-03-26T02:04:18.537Z,1017.11
2017-03-26T02:04:59.021Z,1017.07
2017-03-26T02:05:39.577Z,1017.11
2017-03-26T02:06:20.035Z,1017.09
2017-03-26T02:07:00.563Z,1017.07
2017-03-26T02:07:41.102Z,1017.09
2017-03-26T02:08:21.552Z,1017.12
2017-03-26T02:09:02.096Z,1017.14
2017-03-26T02:09:42.648Z,1017.15
2017-03-26T02:10:23.181Z,1017.12
2017-03-26T02:11:03.723Z,1017.11
2017-03-26T02:11:44.748Z,1017.09
2017-03-26T02:12:25.328Z,1017.07
2017-03-26T02:13:05.897Z,1017.11
2017-03-26T02:13:46.453Z,1017.18
2017-03-26T02:14:26.971Z,1017.2
2017-03-26T02:15:07.510Z,1017.16
2017-03-26T02:15:48.053Z,1017.2
2017-03-26T02:16:28.648Z,1017.16
2017-03-26T02:17:09.143Z,1017.18
2017-03-26T02:17:49.688Z,1017.18
2017-03-26T02:18:30.242Z,1017.17
2017-03-26T02:19:10.772Z,1017.15
2017-03-26T02:19:51.305Z,1017.22
2017-03-26T02:20:31.868Z,1017.21
2017-03-26T02:21:12.433Z,1017.27
2017-03-26T02:21:52.972Z,1017.24
2017-03-26T02:22:33.495Z,1017.24
2017-03-26T02:23:14.040Z,1017.26
2017-03-26T02:23:55.281Z,1017.21
2017-03-26T02:24:35.837Z,1017.19
2017-03-26T02:25:16.369Z,1017.16
2017-03-26T02:25:56.854Z,1017.15
2017-03-26T02:26:37.348Z,1017.15
2017-03-26T02:27:17.886Z,1017.16
2017-03-26T02:27:58.481Z,1017.2
2017-03-26T02:28:39.003Z,1017.18
2017-03-26T02:29:19.538Z,1017.21
2017-03-26T02:30:00.074Z,1017.19
2017-03-26T02:30:40.613Z,1017.21
2017-03-26T02:31:21.146Z,1017.19
2017-03-26T02:32:01.724Z,1017.2
2017-03-26T02:32:42.226Z,1017.2
2017-03-26T02:33:22.757Z,1017.21
2017-03-26T02:34:03.265Z,1017.22
2017-03-26T02:34:43.787Z,1017.25
2017-03-26T02:35:24.297Z,1017.22
2017-03-26T02:36:04.754Z,1017.25
2017-03-26T02:36:45.298Z,1017.23
2017-03-26T02:37:25.802Z,1017.27
2017-03-26T02:38:06.339Z,1017.24
2017-03-26T02:38:46.879Z,1017.28
2017-03-26T02:39:27.387Z,1017.3
2017-03-26T02:40:07.911Z,1017.31
2017-03-26T02:40:48.525Z,1017.28
2017-03-26T02:41:29.065Z,1017.25
2017-03-26T02:42:09.597Z,1017.27
2017-03-26T02:42:50.126Z,1017.3
2017-03-26T02:43:30.642Z,1017.25
2017-03-26T02:44:11.160Z,1017.29
2017-03-26T02:44:51.670Z,1017.28
2017-03-26T02:45:32.210Z,1017.25
2017-03-26T02:46:12.792Z,1017.29
2017-03-26T02:46:53.347Z,1017.28
2017-03-26T02:47:33.902Z,1017.28
2017-03-26T02:48:14.400Z,1017.31
2017-03-26T02:48:54.930Z,1017.36
2017-03-26T02:49:35.452Z,1017.3
2017-03-26T02:50:15.952Z,1017.28
2017-03-26T02:50:56.464Z,1017.32
2017-03-26T02:51:36.959Z,1017.29
2017-03-26T02:52:17.510Z,1017.28
2017-03-26T02:52:58.058Z,1017.27
2017-03-26T02:53:38.612Z,1017.26
2017-03-26T02:54:19.179Z,1017.29
2017-03-26T02:54:59.726Z,1017.29
2017-03-26T02:55:40.239Z,1017.3
2017-03-26T02:56:20.793Z,1017.31
2017-03-26T02:57:01.319Z,1017.3
2017-03-26T02:57:41.823Z,1017.28
2017-03-26T02:58:22.355Z,1017.27
2017-03-26T02:59:02.843Z,1017.26
2017-03-26T02:59:43.394Z,1017.27
2017-03-26T03:00:23.912Z,1017.31
2017-03-26T03:01:04.412Z,1017.25
2017-03-26T03:01:44.932Z,1017.23
2017-03-26T03:02:25.433Z,1017.23
2017-03-26T03:03:05.944Z,1017.21
2017-03-26T03:03:46.513Z,1017.16
2017-03-26T03:04:27.017Z,1017.21
2017-03-26T03:05:07.540Z,1017.21
2017-03-26T03:05:48.038Z,1017.19
2017-03-26T03:06:28.547Z,1017.19
2017-03-26T03:07:09.057Z,1017.2
2017-03-26T03:07:49.563Z,1017.2
2017-03-26T03:08:30.065Z,1017.21
2017-03-26T03:09:10.576Z,1017.18
2017-03-26T03:09:51.113Z,1017.18
2017-03-26T03:10:31.645Z,1017.16
2017-03-26T03:11:12.165Z,1017.16
2017-03-26T03:11:52.675Z,1017.16
2017-03-26T03:12:33.141Z,1017.15
2017-03-26T03:13:13.632Z,1017.16
2017-03-26T03:13:54.110Z,1017.21
2017-03-26T03:14:34.635Z,1017.18
2017-03-26T03:15:15.156Z,1017.19
2017-03-26T03:15:55.667Z,1017.17
2017-03-26T03:16:36.175Z,1017.17
2017-03-26T03:17:16.692Z,1017.16
2017-03-26T03:17:57.255Z,1017.15
2017-03-26T03:18:37.758Z,1017.13
2017-03-26T03:19:18.232Z,1017.16
2017-03-26T03:19:58.721Z,1017.17
2017-03-26T03:20:39.228Z,1017.13
2017-03-26T03:21:19.751Z,1017.12
2017-03-26T03:22:00.328Z,1017.09
2017-03-26T03:22:40.806Z,1017.07
2017-03-26T03:23:21.310Z,1017.11
2017-03-26T03:24:01.839Z,1017.07
2017-03-26T03:24:42.341Z,1017.1
2017-03-26T03:25:22.863Z,1017.07
2017-03-26T03:26:03.390Z,1017.05
2017-03-26T03:26:43.901Z,1017.07
2017-03-26T03:27:24.456Z,1017.07
2017-03-26T03:28:04.917Z,1017.11
2017-03-26T03:28:45.442Z,1017.05
2017-03-26T03:29:26.031Z,1017.05
2017-03-26T03:30:06.635Z,1017.04
2017-03-26T03:30:47.243Z,1017.05
2017-03-26T03:31:27.857Z,1017.1
2017-03-26T03:32:08.430Z,1017.11
2017-03-26T03:32:49.005Z,1017.12
2017-03-26T03:33:29.651Z,1017.13
2017-03-26T03:34:10.296Z,1017.15
2017-03-26T03:34:50.821Z,1017.15
2017-03-26T03:35:31.387Z,1017.21
2017-03-26T03:36:11.904Z,1017.24
2017-03-26T03:36:52.500Z,1017.24
2017-03-26T03:37:33.102Z,1017.22
2017-03-26T03:38:13.729Z,1017.2
2017-03-26T03:38:54.265Z,1017.26
2017-03-26T03:39:34.717Z,1017.22
2017-03-26T03:40:15.251Z,1017.22
2017-03-26T03:40:55.903Z,1017.19
2017-03-26T03:41:36.511Z,1017.17
2017-03-26T03:42:17.020Z,1017.24
2017-03-26T03:42:57.609Z,1017.22
2017-03-26T03:43:38.169Z,1017.2
2017-03-26T03:44:18.750Z,1017.22
2017-03-26T03:44:59.392Z,1017.25
2017-03-26T03:45:39.986Z,1017.26
2017-03-26T03:46:20.518Z,1017.25
2017-03-26T03:47:01.120Z,1017.28
2017-03-26T03:47:41.704Z,1017.26
2017-03-26T03:48:22.236Z,1017.25
2017-03-26T03:49:02.818Z,1017.27
2017-03-26T03:49:43.365Z,1017.29
2017-03-26T03:50:23.955Z,1017.35
2017-03-26T03:51:04.681Z,1017.41
2017-03-26T03:51:45.197Z,1017.38
2017-03-26T03:52:26.013Z,1017.41
2017-03-26T03:53:06.566Z,1017.41
2017-03-26T03:53:47.077Z,1017.42
2017-03-26T03:54:27.649Z,1017.45
2017-03-26T03:55:08.202Z,1017.44
2017-03-26T03:55:49.317Z,1017.46
2017-03-26T03:56:29.977Z,1017.47
2017-03-26T03:57:10.532Z,1017.46
2017-03-26T03:57:51.121Z,1017.44
2017-03-26T03:58:31.718Z,1017.48
2017-03-26T03:59:12.392Z,1017.47
2017-03-26T03:59:52.904Z,1017.49
2017-03-26T04:00:33.439Z,1017.5
2017-03-26T04:01:13.934Z,1017.5
2017-03-26T04:01:54.539Z,1017.47
2017-03-26T04:02:35.041Z,1017.5
2017-03-26T04:03:15.520Z,1017.5
2017-03-26T04:03:56.029Z,1017.49
2017-03-26T04:04:36.669Z,1017.48
2017-03-26T04:05:17.191Z,1017.48
2017-03-26T04:05:57.740Z,1017.47
2017-03-26T04:06:38.284Z,1017.48
2017-03-26T04:07:19.160Z,1017.54
2017-03-26T04:07:59.691Z,1017.53
2017-03-26T04:08:40.212Z,1017.53
2017-03-26T04:09:20.719Z,1017.51
2017-03-26T04:10:01.295Z,1017.57
2017-03-26T04:10:41.836Z,1017.55
2017-03-26T04:11:22.354Z,1017.52
2017-03-26T04:12:02.899Z,1017.55
2017-03-26T04:12:43.422Z,1017.57
2017-03-26T04:13:24.007Z,1017.61
2017-03-26T04:14:04.528Z,1017.59
2017-03-26T04:14:45.058Z,1017.65
2017-03-26T04:15:25.547Z,1017.62
2017-03-26T04:16:06.147Z,1017.63
2017-03-26T04:16:46.745Z,1017.62
2017-03-26T04:17:27.283Z,1017.65
2017-03-26T04:18:07.815Z,1017.62
2017-03-26T04:18:48.343Z,1017.59
2017-03-26T04:19:28.839Z,1017.59
2017-03-26T04:20:09.344Z,1017.57
2017-03-26T04:20:49.912Z,1017.58
2017-03-26T04:21:30.459Z,1017.63
2017-03-26T04:22:10.940Z,1017.6
2017-03-26T04:22:51.550Z,1017.57
2017-03-26T04:23:32.129Z,1017.56
2017-03-26T04:24:12.694Z,1017.56
2017-03-26T04:24:53.264Z,1017.59
2017-03-26T04:25:33.750Z,1017.56
2017-03-26T04:26:14.242Z,1017.56
2017-03-26T04:26:54.806Z,1017.6
2017-03-26T04:27:35.336Z,1017.54
2017-03-26T04:28:15.872Z,1017.56
2017-03-26T04:28:56.543Z,1017.55
2017-03-26T04:29:37.091Z,1017.56
2017-03-26T04:30:17.575Z,1017.56
2017-03-26T04:30:58.125Z,1017.57
2017-03-26T04:31:38.704Z,1017.56
2017-03-26T04:32:19.295Z,1017.58
2017-03-26T04:32:59.819Z,1017.59
2017-03-26T04:33:40.361Z,1017.59
2017-03-26T04:34:20.896Z,1017.56
2017-03-26T04:35:01.396Z,1017.54
2017-03-26T04:35:41.969Z,1017.54
2017-03-26T04:36:22.468Z,1017.53
2017-03-26T04:37:02.966Z,1017.52
2017-03-26T04:37:43.514Z,1017.48
2017-03-26T04:38:24.054Z,1017.46
2017-03-26T04:39:04.530Z,1017.5
2017-03-26T04:39:45.008Z,1017.5
2017-03-26T04:40:25.522Z,1017.56
2017-03-26T04:41:06.073Z,1017.56
2017-03-26T04:41:46.602Z,1017.59
2017-03-26T04:42:27.152Z,1017.63
2017-03-26T04:43:07.674Z,1017.65
2017-03-26T04:43:48.202Z,1017.63
2017-03-26T04:44:28.689Z,1017.61
2017-03-26T04:45:09.187Z,1017.59
2017-03-26T04:45:49.714Z,1017.56
2017-03-26T04:46:30.269Z,1017.61
2017-03-26T04:47:10.786Z,1017.62
2017-03-26T04:47:51.330Z,1017.61
2017-03-26T04:48:31.887Z,1017.66
2017-03-26T04:49:12.412Z,1017.7
2017-03-26T04:49:52.951Z,1017.66
2017-03-26T04:50:33.534Z,1017.65
2017-03-26T04:51:14.081Z,1017.65
2017-03-26T04:51:54.590Z,1017.61
2017-03-26T04:52:35.154Z,1017.61
2017-03-26T04:53:15.718Z,1017.63
2017-03-26T04:53:56.311Z,1017.6
2017-03-26T04:54:36.883Z,1017.61
2017-03-26T04:55:17.450Z,1017.65
2017-03-26T04:55:57.995Z,1017.67
2017-03-26T04:56:38.550Z,1017.71
2017-03-26T04:57:19.003Z,1017.66
2017-03-26T04:57:59.647Z,1017.71
2017-03-26T04:58:40.303Z,1017.72
2017-03-26T04:59:20.897Z,1017.72
2017-03-26T05:00:01.454Z,1017.74
2017-03-26T05:00:42.005Z,1017.74
2017-03-26T05:01:22.599Z,1017.7
2017-03-26T05:02:03.162Z,1017.7
2017-03-26T05:02:43.720Z,1017.71
2017-03-26T05:03:24.339Z,1017.69
2017-03-26T05:04:04.843Z,1017.69
2017-03-26T05:04:45.440Z,1017.71
2017-03-26T05:05:25.923Z,1017.7
2017-03-26T05:06:06.519Z,1017.68
2017-03-26T05:06:47.684Z,1017.71
2017-03-26T05:07:28.255Z,1017.74
2017-03-26T05:08:08.878Z,1017.73
2017-03-26T05:08:49.489Z,1017.73
2017-03-26T05:09:30.006Z,1017.74
2017-03-26T05:10:10.561Z,1017.76
2017-03-26T05:10:51.007Z,1017.74
2017-03-26T05:11:31.562Z,1017.74
2017-03-26T05:12:12.102Z,1017.74
2017-03-26T05:12:52.626Z,1017.72
2017-03-26T05:13:33.218Z,1017.74
2017-03-26T05:14:13.761Z,1017.7
2017-03-26T05:14:54.333Z,1017.72
2017-03-26T05:15:34.949Z,1017.72
2017-03-26T05:16:15.486Z,1017.7
2017-03-26T05:16:56.061Z,1017.67
2017-03-26T05:17:36.670Z,1017.69
2017-03-26T05:18:17.228Z,1017.69
2017-03-26T05:18:57.821Z,1017.67
2017-03-26T05:19:38.395Z,1017.7
2017-03-26T05:20:18.934Z,1017.68
2017-03-26T05:20:59.491Z,1017.7
2017-03-26T05:21:40.122Z,1017.68
2017-03-26T05:22:21.659Z,1017.67
2017-03-26T05:23:02.206Z,1017.65
2017-03-26T05:23:42.801Z,1017.67
2017-03-26T05:24:23.326Z,1017.64
2017-03-26T05:25:03.807Z,1017.61
2017-03-26T05:25:44.428Z,1017.64
2017-03-26T05:26:24.906Z,1017.65
2017-03-26T05:27:05.444Z,1017.63
2017-03-26T05:27:45.998Z,1017.65
2017-03-26T05:28:26.508Z,1017.67
2017-03-26T05:29:07.109Z,1017.63
2017-03-26T05:29:47.727Z,1017.63
2017-03-26T05:30:28.269Z,1017.65
2017-03-26T05:31:08.750Z,1017.66
2017-03-26T05:31:49.295Z,1017.65
2017-03-26T05:32:29.798Z,1017.7
2017-03-26T05:33:10.433Z,1017.67
2017-03-26T05:33:50.920Z,1017.68
2017-03-26T05:34:31.411Z,1017.7
2017-03-26T05:35:11.935Z,1017.68
2017-03-26T05:35:52.515Z,1017.72
2017-03-26T05:36:33.017Z,1017.74
2017-03-26T05:37:13.535Z,1017.74
2017-03-26T05:37:54.068Z,1017.71
2017-03-26T05:38:34.607Z,1017.75
2017-03-26T05:39:15.168Z,1017.77
2017-03-26T05:39:55.727Z,1017.77
2017-03-26T05:40:36.198Z,1017.8
2017-03-26T05:41:16.804Z,1017.81
2017-03-26T05:41:57.330Z,1017.83
2017-03-26T05:42:37.846Z,1017.83
2017-03-26T05:43:18.410Z,1017.87
2017-03-26T05:43:58.969Z,1017.88
2017-03-26T05:44:39.531Z,1017.88
2017-03-26T05:45:20.108Z,1017.89
2017-03-26T05:46:01.339Z,1017.89
2017-03-26T05:46:42.912Z,1017.93
2017-03-26T05:47:24.249Z,1017.93
2017-03-26T05:48:04.839Z,1017.95
2017-03-26T05:48:45.413Z,1017.97
2017-03-26T05:49:25.878Z,1018.01
2017-03-26T05:50:06.479Z,1018.01
2017-03-26T05:50:46.929Z,1018.01
2017-03-26T05:51:27.541Z,1018.02
2017-03-26T05:52:08.095Z,1018.03
2017-03-26T05:52:48.667Z,1018.07
2017-03-26T05:53:29.233Z,1018.05
2017-03-26T05:54:09.817Z,1018.09
2017-03-26T05:54:50.372Z,1018.1
2017-03-26T05:55:30.982Z,1018.07
2017-03-26T05:56:11.529Z,1018.09
2017-03-26T05:56:52.055Z,1018.12
2017-03-26T05:57:32.629Z,1018.12
2017-03-26T05:58:13.565Z,1018.12
2017-03-26T05:58:54.129Z,1018.13
2017-03-26T05:59:34.699Z,1018.15
2017-03-26T06:00:15.199Z,1018.14
2017-03-26T06:00:55.846Z,1018.15
2017-03-26T06:01:36.400Z,1018.13
2017-03-26T06:02:16.889Z,1018.17
2017-03-26T06:02:57.459Z,1018.15
2017-03-26T06:03:38.037Z,1018.14
2017-03-26T06:04:18.508Z,1018.15
2017-03-26T06:04:59.052Z,1018.15
2017-03-26T06:05:39.623Z,1018.17
2017-03-26T06:06:20.191Z,1018.19
2017-03-26T06:07:00.704Z,1018.21
2017-03-26T06:07:41.256Z,1018.18
2017-03-26T06:08:21.884Z,1018.16
2017-03-26T06:09:02.472Z,1018.15
2017-03-26T06:09:42.917Z,1018.12
2017-03-26T06:10:23.511Z,1018.16
2017-03-26T06:11:04.091Z,1018.15
2017-03-26T06:11:44.610Z,1018.15
2017-03-26T06:12:25.164Z,1018.15
2017-03-26T06:13:05.668Z,1018.13
2017-03-26T06:13:46.230Z,1018.17
2017-03-26T06:14:26.703Z,1018.15
2017-03-26T06:15:07.256Z,1018.12
2017-03-26T06:15:47.794Z,1018.11
2017-03-26T06:16:28.308Z,1018.11
2017-03-26T06:17:08.897Z,1018.08
2017-03-26T06:17:49.469Z,1018.03
2017-03-26T06:18:30.095Z,1018.03
2017-03-26T06:19:10.671Z,1018.03
2017-03-26T06:19:51.257Z,1018.04
2017-03-26T06:20:31.776Z,1018.04
2017-03-26T06:21:12.343Z,1018.04
2017-03-26T06:21:52.920Z,1018.08
2017-03-26T06:22:33.486Z,1018.05
2017-03-26T06:23:14.007Z,1018
2017-03-26T06:23:54.603Z,1018.02
2017-03-26T06:24:35.187Z,1018
2017-03-26T06:25:15.595Z,1018.03
2017-03-26T06:25:56.136Z,1017.99
2017-03-26T06:26:36.693Z,1018.04
2017-03-26T06:27:17.234Z,1018.05
2017-03-26T06:27:57.739Z,1018.07
2017-03-26T06:28:38.275Z,1018.03
2017-03-26T06:29:18.925Z,1017.99
2017-03-26T06:29:59.415Z,1018.02
2017-03-26T06:30:39.948Z,1018.04
2017-03-26T06:31:20.556Z,1018.03
2017-03-26T06:32:01.094Z,1018.04
2017-03-26T06:32:41.601Z,1018.04
2017-03-26T06:33:22.197Z,1018.08
2017-03-26T06:34:02.734Z,1018.09
2017-03-26T06:34:43.401Z,1018.1
2017-03-26T06:35:24.877Z,1018.12
2017-03-26T06:36:07.228Z,1018.1
2017-03-26T06:36:49.834Z,1018.09
2017-03-26T06:37:32.289Z,1018.15
2017-03-26T06:38:14.680Z,1018.06
2017-03-26T06:38:56.903Z,1018.05
2017-03-26T06:39:39.434Z,1018.03
2017-03-26T06:40:20.470Z,1018.04
2017-03-26T06:41:01.128Z,1018.03
2017-03-26T06:41:41.726Z,1018
2017-03-26T06:42:22.263Z,1018.02
2017-03-26T06:43:02.801Z,1018.02
2017-03-26T06:43:43.338Z,1018.05
2017-03-26T06:44:23.911Z,1018.08
2017-03-26T06:45:04.422Z,1018.07
2017-03-26T06:45:45.112Z,1018.09
2017-03-26T06:46:25.663Z,1018.07
2017-03-26T06:47:06.396Z,1018.06
2017-03-26T06:47:46.985Z,1018.08
2017-03-26T06:48:27.552Z,1018.08
2017-03-26T06:49:08.048Z,1018.08
2017-03-26T06:49:48.839Z,1018.11
2017-03-26T06:50:29.419Z,1018.14
2017-03-26T06:51:09.947Z,1018.17
2017-03-26T06:51:50.502Z,1018.11
2017-03-26T06:52:31.166Z,1018.12
2017-03-26T06:53:11.592Z,1018.15
2017-03-26T06:53:52.224Z,1018.14
2017-03-26T06:54:32.757Z,1018.16
2017-03-26T06:55:13.341Z,1018.13
2017-03-26T06:55:53.925Z,1018.16
2017-03-26T06:56:34.373Z,1018.16
2017-03-26T06:57:14.916Z,1018.16
2017-03-26T06:57:55.669Z,1018.17
2017-03-26T06:58:36.273Z,1018.16
2017-03-26T06:59:16.992Z,1018.2
2017-03-26T06:59:57.498Z,1018.17
2017-03-26T07:00:38.044Z,1018.19
2017-03-26T07:01:18.605Z,1018.19
2017-03-26T07:01:59.172Z,1018.21
2017-03-26T07:02:39.756Z,1018.25
2017-03-26T07:03:20.256Z,1018.23
2017-03-26T07:04:01.650Z,1018.2
2017-03-26T07:04:43.692Z,1018.26
2017-03-26T07:05:24.262Z,1018.25
2017-03-26T07:06:04.856Z,1018.24
2017-03-26T07:06:45.513Z,1018.29
2017-03-26T07:07:26.060Z,1018.28
2017-03-26T07:08:06.582Z,1018.29
2017-03-26T07:08:47.165Z,1018.31
2017-03-26T07:09:27.753Z,1018.34
2017-03-26T07:10:09.367Z,1018.34
2017-03-26T07:10:49.945Z,1018.36
2017-03-26T07:11:30.574Z,1018.34
2017-03-26T07:12:11.203Z,1018.37
2017-03-26T07:12:51.778Z,1018.35
2017-03-26T07:13:32.339Z,1018.38
2017-03-26T07:14:13.753Z,1018.41
2017-03-26T07:14:54.639Z,1018.41
2017-03-26T07:15:35.117Z,1018.4
2017-03-26T07:16:15.686Z,1018.42
2017-03-26T07:16:56.187Z,1018.44
2017-03-26T07:17:36.747Z,1018.45
2017-03-26T07:18:17.301Z,1018.47
2017-03-26T07:18:57.783Z,1018.43
2017-03-26T07:19:38.370Z,1018.45
2017-03-26T07:20:18.859Z,1018.43
2017-03-26T07:20:59.423Z,1018.43
2017-03-26T07:21:39.923Z,1018.46
2017-03-26T07:22:20.457Z,1018.48
2017-03-26T07:23:01.001Z,1018.43
2017-03-26T07:23:41.547Z,1018.48
2017-03-26T07:24:22.002Z,1018.49
2017-03-26T07:25:02.607Z,1018.46
2017-03-26T07:25:43.122Z,1018.49
2017-03-26T07:26:23.725Z,1018.5
2017-03-26T07:27:04.285Z,1018.47
2017-03-26T07:27:44.775Z,1018.5
2017-03-26T07:28:25.321Z,1018.55
2017-03-26T07:29:05.983Z,1018.6
2017-03-26T07:29:47.129Z,1018.6
2017-03-26T07:30:28.209Z,1018.63
2017-03-26T07:31:08.779Z,1018.64
2017-03-26T07:31:49.476Z,1018.65
2017-03-26T07:32:30.048Z,1018.66
2017-03-26T07:33:10.599Z,1018.69
2017-03-26T07:33:51.135Z,1018.67
2017-03-26T07:34:31.735Z,1018.69
2017-03-26T07:35:12.396Z,1018.72
2017-03-26T07:35:52.989Z,1018.72
2017-03-26T07:36:33.649Z,1018.68
2017-03-26T07:37:14.185Z,1018.74
2017-03-26T07:37:54.726Z,1018.75
2017-03-26T07:38:35.287Z,1018.73
2017-03-26T07:39:15.903Z,1018.74
2017-03-26T07:39:56.460Z,1018.72
2017-03-26T07:40:37.014Z,1018.77
2017-03-26T07:41:17.602Z,1018.74
2017-03-26T07:41:58.226Z,1018.68
2017-03-26T07:42:39.143Z,1018.71
2017-03-26T07:43:19.692Z,1018.68
2017-03-26T07:44:00.213Z,1018.72
2017-03-26T07:44:40.754Z,1018.69
2017-03-26T07:45:21.302Z,1018.71
2017-03-26T07:46:01.821Z,1018.73
2017-03-26T07:46:42.340Z,1018.68
2017-03-26T07:47:22.838Z,1018.7
2017-03-26T07:48:03.423Z,1018.7
2017-03-26T07:48:43.933Z,1018.7
2017-03-26T07:49:24.514Z,1018.69
2017-03-26T07:50:05.071Z,1018.69
2017-03-26T07:50:45.832Z,1018.71
2017-03-26T07:51:26.607Z,1018.71
2017-03-26T07:52:07.275Z,1018.67
2017-03-26T07:52:47.847Z,1018.7
2017-03-26T07:53:28.483Z,1018.65
2017-03-26T07:54:09.131Z,1018.67
2017-03-26T07:54:49.786Z,1018.71
2017-03-26T07:55:30.571Z,1018.73
2017-03-26T07:56:11.006Z,1018.78
2017-03-26T07:56:51.533Z,1018.79
2017-03-26T07:57:32.278Z,1018.79
2017-03-26T07:58:12.998Z,1018.78
2017-03-26T07:58:53.674Z,1018.76
2017-03-26T07:59:34.311Z,1018.77
2017-03-26T08:00:14.867Z,1018.76
2017-03-26T08:00:55.344Z,1018.77
2017-03-26T08:01:35.869Z,1018.8
2017-03-26T08:02:16.411Z,1018.82
2017-03-26T08:02:57.163Z,1018.78
2017-03-26T08:03:37.855Z,1018.79
2017-03-26T08:04:18.436Z,1018.8
2017-03-26T08:04:58.954Z,1018.82
2017-03-26T08:05:39.571Z,1018.8
2017-03-26T08:06:20.205Z,1018.78
2017-03-26T08:07:00.707Z,1018.74
2017-03-26T08:07:41.339Z,1018.77
2017-03-26T08:08:21.994Z,1018.74
2017-03-26T08:09:02.612Z,1018.75
2017-03-26T08:09:43.339Z,1018.69
2017-03-26T08:10:23.975Z,1018.72
2017-03-26T08:11:04.556Z,1018.69
2017-03-26T08:11:45.409Z,1018.68
2017-03-26T08:12:26.094Z,1018.69
2017-03-26T08:13:06.779Z,1018.65
2017-03-26T08:13:47.370Z,1018.65
2017-03-26T08:14:28.028Z,1018.64